createdAt,value
2017-11-07T00:01:13.582Z,3.05
2017-11-07T00:03:41.067Z,2.75
2017-11-07T00:06:09.325Z,3.25
2017-11-07T00:08:36.798Z,2.22
2017-11-07T00:11:04.468Z,2.40
2017-11-07T00:13:32.754Z,2.30
2017-11-07T00:16:00.419Z,2.00
2017-11-07T00:18:28.002Z,2.42
2017-11-07T00:20:55.497Z,2.25
2017-11-07T00:23:22.962Z,2.45
2017-11-07T00:25:50.442Z,2.05
2017-11-07T00:28:18.700Z,2.40
2017-11-07T00:30:46.209Z,2.12
2017-11-07T00:33:13.785Z,2.22
2017-11-07T00:35:41.327Z,2.47
2017-11-07T00:38:08.802Z,1.85
2017-11-07T00:40:36.290Z,2.62
2017-11-07T00:43:03.771Z,2.25
2017-11-07T00:45:31.286Z,1.77
2017-11-07T00:47:58.915Z,2.97
2017-11-07T00:50:26.446Z,2.00
2017-11-07T00:52:54.713Z,2.17
2017-11-07T00:55:22.182Z,1.85
2017-11-07T00:57:49.655Z,1.70
2017-11-07T01:00:17.146Z,2.12
2017-11-07T01:02:44.691Z,1.65
2017-11-07T01:05:12.302Z,2.05
2017-11-07T01:07:39.777Z,2.17
2017-11-07T01:10:08.016Z,2.37
2017-11-07T01:12:35.507Z,1.85
2017-11-07T01:15:02.987Z,1.80
2017-11-07T01:17:30.598Z,1.55
2017-11-07T01:19:59.579Z,1.70
2017-11-07T01:22:27.102Z,1.87
2017-11-07T01:24:55.171Z,1.87
2017-11-07T01:27:22.912Z,1.70
2017-11-07T01:29:50.442Z,1.85
2017-11-07T01:32:18.703Z,2.05
2017-11-07T01:34:46.191Z,2.00
2017-11-07T01:37:13.667Z,1.80
2017-11-07T01:39:41.158Z,3.05
2017-11-07T01:42:08.711Z,2.35
2017-11-07T01:44:36.263Z,2.05
2017-11-07T01:47:03.734Z,1.98
2017-11-07T01:49:31.223Z,1.70
2017-11-07T01:51:59.486Z,1.65
2017-11-07T01:54:26.954Z,1.77
2017-11-07T01:56:55.307Z,2.28
2017-11-07T01:59:22.950Z,2.58
2017-11-07T02:01:50.494Z,1.70
2017-11-07T02:04:17.976Z,1.80
2017-11-07T02:06:45.456Z,1.77
2017-11-07T02:09:12.947Z,2.07
2017-11-07T02:11:40.603Z,2.62
2017-11-07T02:14:08.307Z,1.98
2017-11-07T02:16:36.411Z,1.95
2017-11-07T02:19:03.910Z,1.58
2017-11-07T02:21:31.438Z,4.40
2017-11-07T02:23:59.686Z,2.08
2017-11-07T02:26:27.303Z,2.15
2017-11-07T02:28:54.793Z,1.60
2017-11-07T02:31:22.331Z,2.00
2017-11-07T02:33:49.840Z,1.98
2017-11-07T02:36:17.298Z,1.85
2017-11-07T02:38:45.558Z,3.25
2017-11-07T02:41:13.036Z,2.45
2017-11-07T02:43:41.284Z,2.10
2017-11-07T02:46:08.764Z,2.33
2017-11-07T02:48:37.214Z,3.17
2017-11-07T02:51:04.853Z,2.03
2017-11-07T02:53:32.346Z,1.90
2017-11-07T02:55:59.844Z,2.50
2017-11-07T02:58:27.321Z,2.10
2017-11-07T03:00:54.809Z,1.73
2017-11-07T03:03:22.310Z,2.30
2017-11-07T03:05:49.984Z,1.85
2017-11-07T03:08:17.650Z,2.47
2017-11-07T03:10:45.175Z,3.22
2017-11-07T03:13:13.418Z,2.30
2017-11-07T03:15:40.895Z,3.28
2017-11-07T03:18:10.643Z,1.80
2017-11-07T03:20:38.123Z,1.90
2017-11-07T03:23:05.602Z,1.90
2017-11-07T03:25:33.110Z,1.87
2017-11-07T03:28:00.622Z,2.20
2017-11-07T03:30:28.083Z,2.10
2017-11-07T03:32:55.569Z,2.10
2017-11-07T03:35:23.054Z,1.95
2017-11-07T03:37:50.939Z,2.67
2017-11-07T03:40:18.430Z,2.28
2017-11-07T03:42:46.675Z,2.45
2017-11-07T03:45:14.289Z,2.78
2017-11-07T03:47:41.811Z,2.80
2017-11-07T03:50:09.307Z,2.25
2017-11-07T03:52:36.774Z,1.70
2017-11-07T03:55:04.263Z,1.90
2017-11-07T03:57:31.795Z,2.75
2017-11-07T04:00:00.237Z,2.72
2017-11-07T04:02:28.567Z,2.00
2017-11-07T04:04:56.081Z,1.98
2017-11-07T04:07:23.598Z,2.35
2017-11-07T04:09:51.097Z,1.70
2017-11-07T04:12:18.599Z,1.65
2017-11-07T04:14:46.103Z,1.80
2017-11-07T04:17:14.390Z,2.10
2017-11-07T04:19:41.931Z,2.85
2017-11-07T04:22:10.180Z,1.70
2017-11-07T04:24:37.663Z,1.80
2017-11-07T04:27:05.899Z,2.12
2017-11-07T04:29:34.155Z,2.05
2017-11-07T04:32:01.633Z,2.08
2017-11-07T04:34:29.836Z,2.28
2017-11-07T04:36:57.375Z,3.00
2017-11-07T04:39:24.976Z,1.85
2017-11-07T04:41:53.231Z,2.00
2017-11-07T04:44:20.746Z,1.90
2017-11-07T04:46:48.229Z,2.53
2017-11-07T04:49:15.715Z,2.00
2017-11-07T04:51:43.947Z,2.70
2017-11-07T04:54:11.479Z,1.65
2017-11-07T04:56:39.198Z,2.80
2017-11-07T04:59:06.782Z,1.80
2017-11-07T05:01:34.277Z,1.90
2017-11-07T05:04:01.782Z,2.85
2017-11-07T05:06:30.337Z,2.00
2017-11-07T05:08:57.820Z,2.33
2017-11-07T05:11:26.144Z,2.72
2017-11-07T05:13:53.713Z,1.50
2017-11-07T05:16:21.227Z,2.03
2017-11-07T05:18:49.470Z,1.85
2017-11-07T05:21:17.056Z,3.78
2017-11-07T05:23:45.302Z,2.30
2017-11-07T05:26:12.788Z,3.42
2017-11-07T05:28:41.022Z,1.75
2017-11-07T05:31:10.016Z,2.22
2017-11-07T05:33:37.495Z,1.92
2017-11-07T05:36:05.756Z,2.00
2017-11-07T05:38:33.366Z,1.65
2017-11-07T05:41:00.869Z,2.30
2017-11-07T05:43:28.350Z,3.50
2017-11-07T05:45:56.607Z,2.20
2017-11-07T05:48:24.091Z,2.20
2017-11-07T05:50:51.647Z,1.77
2017-11-07T05:53:19.987Z,2.10
2017-11-07T05:55:47.790Z,2.55
2017-11-07T05:58:16.157Z,1.98
2017-11-07T06:00:44.627Z,2.37
2017-11-07T06:03:12.189Z,2.45
2017-11-07T06:05:40.442Z,2.10
2017-11-07T06:08:07.924Z,2.70
2017-11-07T06:10:36.177Z,2.20
2017-11-07T06:13:03.666Z,2.20
2017-11-07T06:15:31.913Z,2.15
2017-11-07T06:17:59.413Z,2.15
2017-11-07T06:20:26.926Z,2.10
2017-11-07T06:22:54.443Z,2.33
2017-11-07T06:25:21.922Z,2.25
2017-11-07T06:27:49.405Z,1.98
2017-11-07T06:30:16.882Z,2.05
2017-11-07T06:32:45.215Z,2.30
2017-11-07T06:35:12.891Z,1.60
2017-11-07T06:37:40.503Z,1.95
2017-11-07T06:40:07.978Z,1.92
2017-11-07T06:42:35.467Z,2.08
2017-11-07T06:45:02.947Z,2.20
2017-11-07T06:47:31.209Z,3.10
2017-11-07T06:49:58.822Z,2.70
2017-11-07T06:52:26.447Z,2.00
2017-11-07T06:54:54.098Z,3.65
2017-11-07T06:57:21.558Z,2.03
2017-11-07T06:59:49.810Z,2.37
2017-11-07T07:02:17.286Z,2.37
2017-11-07T07:04:45.539Z,2.12
2017-11-07T07:07:13.082Z,1.92
2017-11-07T07:09:40.694Z,3.25
2017-11-07T07:12:09.046Z,2.40
2017-11-07T07:14:36.558Z,2.60
2017-11-07T07:17:04.037Z,3.33
2017-11-07T07:19:31.511Z,3.00
2017-11-07T07:21:59.003Z,3.05
2017-11-07T07:24:26.539Z,3.25
2017-11-07T07:26:54.806Z,3.30
2017-11-07T07:29:22.306Z,2.90
2017-11-07T07:31:49.843Z,3.37
2017-11-07T07:34:18.100Z,3.20
2017-11-07T07:36:45.566Z,4.12
2017-11-07T07:39:13.827Z,5.12
2017-11-07T07:41:41.302Z,4.00
2017-11-07T07:44:09.546Z,3.57
2017-11-07T07:46:37.203Z,3.35
2017-11-07T07:49:05.357Z,2.60
2017-11-07T07:51:33.218Z,2.85
2017-11-07T07:54:00.764Z,4.03
2017-11-07T07:56:28.254Z,3.00
2017-11-07T07:58:55.730Z,3.03
2017-11-07T08:01:23.231Z,3.45
2017-11-07T08:03:50.732Z,3.03
2017-11-07T08:06:18.305Z,3.08
2017-11-07T08:08:45.918Z,2.70
2017-11-07T08:11:13.384Z,3.25
2017-11-07T08:13:40.860Z,3.62
2017-11-07T08:16:08.354Z,3.75
2017-11-07T08:18:36.674Z,3.00
2017-11-07T08:21:04.266Z,2.80
2017-11-07T08:23:31.768Z,3.40
2017-11-07T08:25:59.262Z,3.40
2017-11-07T08:28:26.748Z,3.47
2017-11-07T08:30:54.233Z,3.67
2017-11-07T08:33:32.678Z,4.40
2017-11-07T08:36:00.175Z,4.35
2017-11-07T08:38:27.699Z,3.60
2017-11-07T08:40:55.198Z,3.80
2017-11-07T08:43:23.459Z,4.28
2017-11-07T08:45:51.069Z,4.67
2017-11-07T08:48:18.592Z,3.78
2017-11-07T08:50:46.065Z,3.92
2017-11-07T08:53:13.566Z,4.05
2017-11-07T08:55:41.038Z,4.28
2017-11-07T08:58:08.582Z,3.42
2017-11-07T09:00:36.155Z,3.90
2017-11-07T09:03:03.650Z,4.15
2017-11-07T09:05:31.165Z,4.00
2017-11-07T09:07:58.635Z,3.90
2017-11-07T09:10:26.417Z,4.03
2017-11-07T09:12:54.674Z,3.75
2017-11-07T09:15:22.235Z,3.62
2017-11-07T09:17:49.805Z,3.75
2017-11-07T09:20:18.101Z,3.47
2017-11-07T09:22:45.618Z,4.57
2017-11-07T09:25:13.106Z,3.55
2017-11-07T09:27:41.347Z,4.00
2017-11-07T09:30:08.835Z,4.20
2017-11-07T09:32:37.155Z,4.87
2017-11-07T09:35:04.680Z,4.03
2017-11-07T09:37:33.068Z,3.70
2017-11-07T09:40:00.589Z,5.20
2017-11-07T09:42:28.055Z,3.73
2017-11-07T09:44:56.306Z,4.97
2017-11-07T09:47:23.790Z,5.95
2017-11-07T09:49:52.043Z,4.60
2017-11-07T09:52:19.671Z,4.47
2017-11-07T09:54:47.286Z,4.30
2017-11-07T09:57:14.871Z,4.50
2017-11-07T09:59:43.112Z,4.50
2017-11-07T10:02:10.630Z,4.15
2017-11-07T10:04:38.111Z,4.15
2017-11-07T10:07:05.650Z,4.62
2017-11-07T10:09:33.175Z,3.90
2017-11-07T10:12:00.703Z,3.95
2017-11-07T10:14:28.190Z,4.07
2017-11-07T10:16:55.666Z,3.97
2017-11-07T10:19:23.161Z,4.18
2017-11-07T10:21:50.652Z,4.05
2017-11-07T10:24:18.894Z,4.20
2017-11-07T10:26:46.485Z,4.18
2017-11-07T10:29:14.866Z,4.07
2017-11-07T10:31:42.386Z,3.95
2017-11-07T10:34:09.871Z,4.20
2017-11-07T10:36:38.129Z,3.40
2017-11-07T10:39:05.606Z,4.20
2017-11-07T10:41:33.851Z,4.12
2017-11-07T10:44:01.341Z,3.90
2017-11-07T10:46:28.882Z,3.70
2017-11-07T10:48:57.545Z,3.83
2017-11-07T10:51:25.355Z,3.42
2017-11-07T10:53:53.786Z,3.85
2017-11-07T10:56:21.286Z,3.70
2017-11-07T10:58:49.531Z,3.75
2017-11-07T11:01:17.022Z,3.50
2017-11-07T11:03:44.514Z,3.72
2017-11-07T11:06:11.990Z,3.65
2017-11-07T11:08:41.331Z,3.15
2017-11-07T11:11:09.599Z,3.17
2017-11-07T11:13:38.067Z,3.47
2017-11-07T11:16:05.636Z,3.80
2017-11-07T11:18:33.156Z,3.83
2017-11-07T11:21:00.633Z,3.90
2017-11-07T11:23:28.232Z,3.28
2017-11-07T11:25:55.714Z,3.08
2017-11-07T11:28:23.255Z,3.45
2017-11-07T11:30:50.742Z,3.33
2017-11-07T11:33:18.342Z,3.78
2017-11-07T11:35:46.577Z,3.65
2017-11-07T11:38:14.200Z,4.03
2017-11-07T11:40:41.672Z,3.75
2017-11-07T11:43:10.019Z,3.42
2017-11-07T11:45:38.276Z,4.12
2017-11-07T11:48:05.758Z,3.35
2017-11-07T11:50:33.277Z,3.35
2017-11-07T11:53:01.554Z,6.53
2017-11-07T11:55:29.126Z,3.10
2017-11-07T11:57:57.370Z,2.95
2017-11-07T12:00:24.946Z,3.55
2017-11-07T12:02:52.432Z,3.90
2017-11-07T12:05:20.676Z,3.50
2017-11-07T12:07:48.154Z,2.80
2017-11-07T12:10:16.412Z,3.55
2017-11-07T12:12:44.086Z,3.33
2017-11-07T12:15:11.559Z,3.55
2017-11-07T12:17:39.951Z,3.37
2017-11-07T12:20:08.223Z,4.10
2017-11-07T12:22:36.466Z,3.55
2017-11-07T12:25:03.966Z,2.93
2017-11-07T12:27:31.443Z,3.47
2017-11-07T12:29:58.937Z,3.47
2017-11-07T12:32:26.425Z,4.12
2017-11-07T12:34:53.933Z,3.10
2017-11-07T12:37:21.441Z,3.40
2017-11-07T12:39:48.919Z,3.42
2017-11-07T12:42:16.827Z,3.37
2017-11-07T12:44:44.303Z,4.05
2017-11-07T12:47:12.550Z,3.90
2017-11-07T12:49:40.106Z,2.80
2017-11-07T12:52:07.586Z,3.75
2017-11-07T12:54:35.867Z,4.18
2017-11-07T12:57:04.107Z,3.15
2017-11-07T12:59:31.622Z,4.03
2017-11-07T13:01:59.854Z,2.75
2017-11-07T13:04:27.583Z,5.60
2017-11-07T13:06:55.058Z,4.00
2017-11-07T13:09:22.543Z,3.20
2017-11-07T13:11:50.030Z,3.87
2017-11-07T13:14:17.625Z,3.72
2017-11-07T13:16:45.106Z,3.45
2017-11-07T13:19:12.930Z,3.05
2017-11-07T13:21:40.419Z,3.25
2017-11-07T13:24:08.014Z,3.47
2017-11-07T13:26:36.274Z,3.70
2017-11-07T13:29:03.791Z,3.50
2017-11-07T13:31:31.282Z,3.20
2017-11-07T13:33:58.853Z,3.20
2017-11-07T13:36:27.168Z,2.90
2017-11-07T13:38:54.697Z,3.60
2017-11-07T13:41:22.947Z,3.47
2017-11-07T13:43:50.456Z,3.30
2017-11-07T13:46:17.945Z,3.90
2017-11-07T13:48:45.420Z,4.40
2017-11-07T13:51:12.936Z,4.30
2017-11-07T13:53:40.430Z,3.60
2017-11-07T13:56:08.874Z,3.55
2017-11-07T13:58:36.351Z,3.60
2017-11-07T14:01:03.932Z,3.50
2017-11-07T14:03:31.421Z,4.30
2017-11-07T14:05:58.940Z,3.58
2017-11-07T14:08:26.421Z,3.70
2017-11-07T14:10:54.728Z,3.97
2017-11-07T14:13:22.210Z,3.35
2017-11-07T14:15:49.744Z,3.67
2017-11-07T14:18:17.221Z,3.28
2017-11-07T14:20:44.826Z,3.60
2017-11-07T14:23:13.074Z,3.55
2017-11-07T14:25:40.624Z,3.47
2017-11-07T14:28:08.103Z,3.42
2017-11-07T14:30:35.614Z,4.65
2017-11-07T14:33:03.100Z,3.40
2017-11-07T14:35:30.976Z,5.65
2017-11-07T14:37:58.459Z,3.80
2017-11-07T14:40:27.107Z,4.10
2017-11-07T14:42:54.590Z,3.90
2017-11-07T14:45:22.063Z,3.30
2017-11-07T14:47:50.419Z,3.53
2017-11-07T14:50:17.886Z,4.30
2017-11-07T14:52:46.556Z,3.40
2017-11-07T14:55:14.032Z,3.97
2017-11-07T14:57:42.294Z,3.10
2017-11-07T15:00:09.790Z,5.82
2017-11-07T15:02:37.250Z,3.60
2017-11-07T15:05:04.750Z,4.32
2017-11-07T15:07:32.286Z,4.30
2017-11-07T15:09:59.776Z,3.67
2017-11-07T15:12:27.265Z,4.55
2017-11-07T15:14:54.759Z,3.45
2017-11-07T15:17:22.282Z,3.37
2017-11-07T15:19:49.782Z,4.03
2017-11-07T15:22:17.513Z,3.67
2017-11-07T15:24:44.992Z,4.25
2017-11-07T15:27:12.529Z,4.10
2017-11-07T15:29:40.014Z,3.60
2017-11-07T15:32:07.500Z,4.00
2017-11-07T15:34:34.990Z,4.28
2017-11-07T15:37:02.486Z,4.60
2017-11-07T15:39:29.990Z,3.50
2017-11-07T15:41:58.238Z,3.67
2017-11-07T15:44:25.810Z,4.37
2017-11-07T15:46:53.278Z,4.53
2017-11-07T15:49:21.631Z,5.30
2017-11-07T15:51:49.122Z,4.37
2017-11-07T15:54:17.800Z,6.03
2017-11-07T15:56:46.058Z,5.28
2017-11-07T15:59:13.678Z,4.10
2017-11-07T16:01:41.166Z,4.18
2017-11-07T16:04:08.653Z,4.18
2017-11-07T16:06:37.003Z,4.40
2017-11-07T16:09:04.570Z,4.78
2017-11-07T16:11:32.259Z,4.18
2017-11-07T16:13:59.790Z,4.68
2017-11-07T16:16:27.364Z,5.03
2017-11-07T16:18:55.594Z,5.05
2017-11-07T16:21:23.098Z,4.20
2017-11-07T16:23:51.347Z,4.80
2017-11-07T16:26:19.621Z,10.80
2017-11-07T16:28:47.114Z,6.22
2017-11-07T16:31:14.768Z,9.20
2017-11-07T16:33:42.405Z,5.45
2017-11-07T16:36:09.879Z,4.97
2017-11-07T16:38:38.136Z,6.60
2017-11-07T16:41:05.615Z,4.57
2017-11-07T16:43:33.859Z,6.45
2017-11-07T16:46:01.367Z,4.35
2017-11-07T16:48:28.958Z,5.12
2017-11-07T16:50:56.556Z,4.37
2017-11-07T16:53:24.031Z,5.57
2017-11-07T16:55:51.521Z,4.35
2017-11-07T16:58:18.997Z,5.20
2017-11-07T17:00:46.500Z,5.05
2017-11-07T17:03:14.778Z,4.87
2017-11-07T17:05:42.309Z,5.30
2017-11-07T17:08:09.838Z,4.90
2017-11-07T17:10:37.359Z,4.78
2017-11-07T17:13:04.846Z,4.40
2017-11-07T17:15:32.326Z,6.12
2017-11-07T17:18:00.148Z,6.40
2017-11-07T17:20:27.914Z,4.47
2017-11-07T17:22:55.761Z,5.07
2017-11-07T17:25:24.221Z,5.00
2017-11-07T17:27:51.766Z,5.30
2017-11-07T17:30:19.275Z,5.70
2017-11-07T17:32:46.790Z,6.95
2017-11-07T17:35:14.303Z,9.38
2017-11-07T17:37:41.918Z,5.22
2017-11-07T17:40:09.451Z,6.80
2017-11-07T17:42:36.939Z,6.80
2017-11-07T17:45:05.186Z,6.10
2017-11-07T17:47:32.658Z,5.62
2017-11-07T17:50:00.915Z,5.70
2017-11-07T17:52:28.583Z,4.35
2017-11-07T17:54:56.159Z,4.93
2017-11-07T17:57:23.735Z,4.65
2017-11-07T17:59:51.975Z,4.53
2017-11-07T18:02:19.463Z,5.55
2017-11-07T18:04:47.727Z,6.72
2017-11-07T18:07:15.979Z,4.35
2017-11-07T18:09:43.462Z,5.43
2017-11-07T18:12:11.710Z,4.80
2017-11-07T18:14:40.044Z,4.90
2017-11-07T18:17:07.928Z,4.60
2017-11-07T18:19:35.627Z,4.80
2017-11-07T18:22:03.310Z,5.45
2017-11-07T18:24:31.551Z,4.45
2017-11-07T18:26:59.036Z,7.57
2017-11-07T18:29:27.296Z,6.62
2017-11-07T18:31:54.782Z,7.12
2017-11-07T18:34:22.267Z,5.43
2017-11-07T18:36:50.051Z,5.25
2017-11-07T18:39:17.539Z,4.53
2017-11-07T18:41:45.802Z,4.72
2017-11-07T18:44:13.301Z,4.97
2017-11-07T18:46:40.799Z,5.40
2017-11-07T18:49:08.314Z,4.93
2017-11-07T18:51:35.903Z,5.25
2017-11-07T18:54:03.395Z,4.90
2017-11-07T18:56:30.883Z,7.87
2017-11-07T18:58:58.368Z,5.37
2017-11-07T19:01:25.854Z,6.18
2017-11-07T19:03:53.541Z,5.30
2017-11-07T19:06:21.839Z,5.43
2017-11-07T19:08:50.443Z,5.62
2017-11-07T19:11:18.313Z,5.15
2017-11-07T19:13:45.966Z,5.40
2017-11-07T19:16:13.443Z,4.25
2017-11-07T19:18:40.939Z,4.97
2017-11-07T19:21:08.418Z,5.65
2017-11-07T19:23:35.936Z,6.80
2017-11-07T19:26:03.787Z,4.25
2017-11-07T19:28:31.373Z,4.70
2017-11-07T19:30:58.982Z,5.43
2017-11-07T19:33:26.548Z,5.30
2017-11-07T19:35:54.109Z,4.97
2017-11-07T19:38:21.598Z,6.70
2017-11-07T19:40:49.094Z,4.45
2017-11-07T19:43:16.755Z,5.32
2017-11-07T19:45:44.239Z,4.87
2017-11-07T19:48:11.777Z,4.68
2017-11-07T19:50:39.281Z,4.57
2017-11-07T19:53:06.824Z,5.25
2017-11-07T19:55:34.589Z,5.15
2017-11-07T19:58:02.376Z,5.87
2017-11-07T20:00:29.892Z,5.15
2017-11-07T20:02:57.390Z,5.40
2017-11-07T20:05:24.880Z,5.32
2017-11-07T20:07:52.390Z,6.45
2017-11-07T20:10:20.116Z,4.70
2017-11-07T20:12:47.746Z,5.30
2017-11-07T20:15:15.254Z,5.37
2017-11-07T20:17:42.784Z,5.12
2017-11-07T20:20:10.274Z,5.57
2017-11-07T20:22:37.788Z,4.35
2017-11-07T20:25:06.096Z,5.75
2017-11-07T20:27:33.670Z,4.80
2017-11-07T20:30:01.218Z,5.90
2017-11-07T20:32:28.708Z,4.93
2017-11-07T20:34:56.228Z,6.25
2017-11-07T20:37:23.739Z,5.32
2017-11-07T20:40:01.199Z,4.87
2017-11-07T20:42:28.708Z,5.40
2017-11-07T20:44:56.318Z,5.32
2017-11-07T20:47:23.903Z,5.10
2017-11-07T20:49:51.461Z,5.67
2017-11-07T20:52:18.957Z,4.87
2017-11-07T20:54:46.444Z,5.68
2017-11-07T20:57:13.940Z,5.37
2017-11-07T20:59:41.541Z,8.17
2017-11-07T21:02:09.215Z,8.43
2017-11-07T21:04:36.734Z,4.53
2017-11-07T21:07:05.125Z,5.22
2017-11-07T21:09:32.644Z,6.43
2017-11-07T21:12:00.187Z,5.80
2017-11-07T21:14:27.680Z,5.12
2017-11-07T21:16:55.937Z,5.93
2017-11-07T21:19:23.493Z,5.50
2017-11-07T21:21:51.020Z,6.25
2017-11-07T21:24:18.570Z,5.45
2017-11-07T21:26:46.080Z,5.37
2017-11-07T21:29:14.421Z,5.05
2017-11-07T21:31:41.932Z,5.87
2017-11-07T21:34:10.177Z,5.57
2017-11-07T21:36:37.683Z,5.20
2017-11-07T21:39:05.211Z,5.20
2017-11-07T21:41:32.722Z,5.30
2017-11-07T21:44:00.215Z,5.63
2017-11-07T21:46:28.485Z,5.72
2017-11-07T21:48:55.967Z,4.90
2017-11-07T21:51:24.220Z,6.07
2017-11-07T21:53:51.751Z,4.82
2017-11-07T21:56:20.278Z,5.27
2017-11-07T21:58:48.090Z,5.28
2017-11-07T22:01:15.716Z,5.10
2017-11-07T22:03:43.255Z,5.35
2017-11-07T22:06:11.494Z,5.25
2017-11-07T22:08:38.984Z,5.62
2017-11-07T22:11:07.259Z,5.80
2017-11-07T22:13:35.514Z,5.53
2017-11-07T22:16:03.015Z,6.50
2017-11-07T22:18:30.615Z,5.80
2017-11-07T22:20:58.226Z,5.75
2017-11-07T22:23:27.283Z,6.12
2017-11-07T22:25:54.758Z,5.80
2017-11-07T22:28:22.246Z,5.40
2017-11-07T22:30:49.723Z,5.72
2017-11-07T22:33:17.414Z,6.20
2017-11-07T22:35:45.039Z,6.25
2017-11-07T22:38:12.573Z,6.57
2017-11-07T22:40:40.063Z,5.90
2017-11-07T22:43:07.558Z,6.40
2017-11-07T22:45:35.062Z,6.55
2017-11-07T22:48:02.706Z,7.40
2017-11-07T22:50:31.250Z,6.30
2017-11-07T22:52:58.996Z,6.80
2017-11-07T22:55:26.551Z,7.90
2017-11-07T22:57:54.061Z,5.80
2017-11-07T23:00:22.310Z,7.43
2017-11-07T23:02:49.799Z,7.30
2017-11-07T23:05:17.351Z,6.35
2017-11-07T23:07:45.726Z,6.07
2017-11-07T23:10:14.122Z,6.53
2017-11-07T23:12:41.706Z,5.87
2017-11-07T23:15:09.215Z,6.03
2017-11-07T23:17:36.731Z,8.13
2017-11-07T23:20:04.214Z,7.05
2017-11-07T23:22:31.704Z,7.47
2017-11-07T23:24:59.958Z,7.47
2017-11-07T23:27:28.202Z,7.10
2017-11-07T23:29:55.752Z,7.65
2017-11-07T23:32:23.300Z,6.50
2017-11-07T23:34:50.775Z,6.85
2017-11-07T23:37:18.264Z,6.90
2017-11-07T23:39:45.746Z,6.93
2017-11-07T23:42:13.514Z,6.62
2017-11-07T23:44:41.321Z,7.75
2017-11-07T23:47:08.854Z,7.47
2017-11-07T23:49:36.339Z,8.75
2017-11-07T23:52:03.827Z,8.50
2017-11-07T23:54:32.076Z,6.47
2017-11-07T23:56:59.572Z,8.60
2017-11-07T23:59:27.146Z,6.90
